createdAt,value
2019-04-03T00:01:16.980Z,99156.72
2019-04-03T00:03:44.139Z,99156.06
2019-04-03T00:06:11.438Z,99152.81
2019-04-03T00:08:39.206Z,99152.58
2019-04-03T00:11:08.641Z,99147.16
2019-04-03T00:13:35.351Z,99142.92
2019-04-03T00:16:02.814Z,99142.20
2019-04-03T00:18:29.879Z,99136.42
2019-04-03T00:20:56.937Z,99129.50
2019-04-03T00:23:24.151Z,99128.49
2019-04-03T00:25:52.380Z,99115.91
2019-04-03T00:28:22.024Z,99115.16
2019-04-03T00:30:49.288Z,99120.69
2019-04-03T00:33:16.337Z,99122.01
2019-04-03T00:35:43.427Z,99122.65
2019-04-03T00:38:10.483Z,99120.33
2019-04-03T00:40:37.995Z,99113.27
2019-04-03T00:43:05.049Z,99112.79
2019-04-03T00:45:32.616Z,99107.47
2019-04-03T00:47:59.873Z,99107.88
2019-04-03T00:50:27.198Z,99104.64
2019-04-03T00:52:54.244Z,99105.02
2019-04-03T00:55:21.293Z,99100.22
2019-04-03T00:57:48.331Z,99094.29
2019-04-03T01:00:16.315Z,99100.38
2019-04-03T01:02:43.493Z,99091.61
2019-04-03T01:05:11.066Z,99092.91
2019-04-03T01:07:38.109Z,99093.37
2019-04-03T01:10:05.441Z,99094.77
2019-04-03T01:12:32.627Z,99095.75
2019-04-03T01:15:01.636Z,99106.44
2019-04-03T01:17:29.194Z,99108.95
2019-04-03T01:19:56.314Z,99110.56
2019-04-03T01:22:23.874Z,99107.73
2019-04-03T01:24:50.869Z,99100.30
2019-04-03T01:27:17.903Z,99097.25
2019-04-03T01:29:45.333Z,99102.70
2019-04-03T01:32:15.494Z,99101.03
2019-04-03T01:34:41.518Z,99091.67
2019-04-03T01:37:09.109Z,99083.31
2019-04-03T01:39:36.182Z,99088.11
2019-04-03T01:42:03.286Z,99083.59
2019-04-03T01:44:33.432Z,99079.57
2019-04-03T01:47:00.841Z,99067.59
2019-04-03T01:49:31.425Z,99073.13
2019-04-03T01:52:00.895Z,99076.84
2019-04-03T01:54:28.232Z,99072.57
2019-04-03T01:56:55.378Z,99069.56
2019-04-03T01:59:22.437Z,99064.78
2019-04-03T02:01:49.787Z,99060.87
2019-04-03T02:04:16.844Z,99061.02
2019-04-03T02:06:44.384Z,99059.76
2019-04-03T02:09:11.524Z,99063.95
2019-04-03T02:11:40.479Z,99057.63
2019-04-03T02:14:07.529Z,99055.27
2019-04-03T02:16:34.533Z,99047.55
2019-04-03T02:19:01.640Z,99044.87
2019-04-03T02:21:29.051Z,99055.23
2019-04-03T02:23:57.514Z,99060.03
2019-04-03T02:26:24.803Z,99055.81
2019-04-03T02:28:52.223Z,99057.02
2019-04-03T02:31:20.235Z,99060.95
2019-04-03T02:33:47.957Z,99057.40
2019-04-03T02:36:16.100Z,99055.20
2019-04-03T02:38:43.593Z,99046.59
2019-04-03T02:41:10.699Z,99039.40
2019-04-03T02:43:37.774Z,99047.66
2019-04-03T02:46:05.159Z,99047.15
2019-04-03T02:48:37.370Z,99047.85
2019-04-03T02:51:02.212Z,99047.89
2019-04-03T02:53:30.812Z,99041.28
2019-04-03T02:55:58.210Z,99036.64
2019-04-03T02:58:25.339Z,99041.05
2019-04-03T03:00:53.015Z,99035.30
2019-04-03T03:03:20.183Z,99033.64
2019-04-03T03:05:47.207Z,99035.48
2019-04-03T03:08:15.227Z,99028.66
2019-04-03T03:10:42.449Z,99036.00
2019-04-03T03:13:09.767Z,99025.13
2019-04-03T03:15:37.972Z,99025.28
2019-04-03T03:18:04.980Z,99026.66
2019-04-03T03:20:33.934Z,99028.56
2019-04-03T03:23:08.454Z,99029.19
2019-04-03T03:25:46.811Z,99030.30
2019-04-03T03:28:16.291Z,99031.31
2019-04-03T03:30:54.913Z,99033.43
2019-04-03T03:33:31.029Z,99040.09
2019-04-03T03:35:47.187Z,99036.53
2019-04-03T03:38:15.781Z,99032.10
2019-04-03T03:40:47.307Z,99033.91
2019-04-03T03:43:15.051Z,99031.23
2019-04-03T03:45:42.571Z,99034.73
2019-04-03T03:48:11.036Z,99031.09
2019-04-03T03:50:39.079Z,99026.86
2019-04-03T03:53:10.192Z,99028.09
2019-04-03T03:55:36.714Z,99030.61
2019-04-03T03:58:06.090Z,99030.61
2019-04-03T04:00:35.517Z,99027.41
2019-04-03T04:03:03.514Z,99025.11
2019-04-03T04:05:30.548Z,99019.75
2019-04-03T04:07:57.868Z,99019.34
2019-04-03T04:10:27.712Z,99017.56
2019-04-03T04:12:56.219Z,99023.69
2019-04-03T04:15:23.793Z,99028.15
2019-04-03T04:17:52.368Z,99028.80
2019-04-03T04:20:19.888Z,99025.11
2019-04-03T04:22:55.117Z,99026.12
2019-04-03T04:25:30.957Z,99024.91
2019-04-03T04:28:03.557Z,99024.47
2019-04-03T04:30:31.276Z,99020.16
2019-04-03T04:32:59.915Z,99025.09
2019-04-03T04:35:27.399Z,99019.41
2019-04-03T04:37:56.761Z,99024.73
2019-04-03T04:40:24.166Z,99019.00
2019-04-03T04:42:52.635Z,99024.64
2019-04-03T04:45:19.696Z,99026.37
2019-04-03T04:47:46.905Z,99024.72
2019-04-03T04:50:20.288Z,99021.10
2019-04-03T04:52:48.016Z,99018.36
2019-04-03T04:55:16.129Z,99024.22
2019-04-03T04:57:43.246Z,99019.45
2019-04-03T05:00:10.822Z,99016.90
2019-04-03T05:02:39.073Z,99010.73
2019-04-03T05:05:08.489Z,99015.44
2019-04-03T05:07:35.274Z,99005.34
2019-04-03T05:10:05.899Z,99013.54
2019-04-03T05:12:33.558Z,99009.69
2019-04-03T05:15:00.588Z,99014.95
2019-04-03T05:17:27.693Z,99009.39
2019-04-03T05:19:55.339Z,98996.13
2019-04-03T05:22:23.760Z,99006.30
2019-04-03T05:24:54.351Z,99006.66
2019-04-03T05:27:22.871Z,99012.13
2019-04-03T05:29:52.872Z,99006.55
2019-04-03T05:32:20.303Z,99010.73
2019-04-03T05:34:48.002Z,99007.92
2019-04-03T05:37:19.710Z,99007.59
2019-04-03T05:39:45.944Z,99005.07
2019-04-03T05:42:13.011Z,99011.99
2019-04-03T05:44:40.204Z,99007.27
2019-04-03T05:47:07.862Z,99017.04
2019-04-03T05:49:36.053Z,99013.80
2019-04-03T05:52:04.706Z,99014.77
2019-04-03T05:54:31.936Z,99010.71
2019-04-03T05:56:59.041Z,99006.07
2019-04-03T05:59:26.095Z,99005.45
2019-04-03T06:01:53.127Z,98996.80
2019-04-03T06:04:20.330Z,98992.02
2019-04-03T06:06:47.865Z,98985.31
2019-04-03T06:09:15.025Z,98985.38
2019-04-03T06:11:42.087Z,98978.72
2019-04-03T06:14:10.328Z,98985.63
2019-04-03T06:16:37.618Z,98984.48
2019-04-03T06:19:06.425Z,98980.17
2019-04-03T06:21:33.774Z,98970.56
2019-04-03T06:24:00.768Z,98966.72
2019-04-03T06:26:29.599Z,98967.83
2019-04-03T06:28:56.756Z,98982.09
2019-04-03T06:31:24.343Z,98984.59
2019-04-03T06:33:54.005Z,98988.27
2019-04-03T06:36:21.253Z,98988.98
2019-04-03T06:38:48.807Z,98988.37
2019-04-03T06:41:16.188Z,98990.30
2019-04-03T06:43:49.124Z,99000.52
2019-04-03T06:46:14.766Z,98984.17
2019-04-03T06:48:41.840Z,98992.47
2019-04-03T06:51:08.848Z,98977.33
2019-04-03T06:53:35.940Z,98981.98
2019-04-03T06:56:03.116Z,98977.13
2019-04-03T06:58:38.140Z,98972.55
2019-04-03T07:00:59.586Z,98965.80
2019-04-03T07:03:26.978Z,98966.98
2019-04-03T07:05:54.332Z,98961.86
2019-04-03T07:08:29.355Z,98970.26
2019-04-03T07:10:55.274Z,98966.34
2019-04-03T07:13:23.755Z,98970.91
2019-04-03T07:15:50.801Z,98964.98
2019-04-03T07:18:19.855Z,98961.56
2019-04-03T07:20:47.366Z,98966.31
2019-04-03T07:23:14.370Z,98960.88
2019-04-03T07:25:41.755Z,98957.26
2019-04-03T07:28:09.530Z,98950.36
2019-04-03T07:30:36.801Z,98955.28
2019-04-03T07:33:05.807Z,98947.75
2019-04-03T07:35:33.504Z,98944.51
2019-04-03T07:38:00.521Z,98945.67
2019-04-03T07:40:27.949Z,98944.67
2019-04-03T07:42:55.989Z,98944.73
2019-04-03T07:45:27.742Z,98947.98
2019-04-03T07:47:54.812Z,98939.13
2019-04-03T07:50:22.297Z,98945.59
2019-04-03T07:52:49.331Z,98948.87
2019-04-03T07:55:16.369Z,98950.94
2019-04-03T07:57:46.167Z,98944.41
2019-04-03T08:00:14.921Z,98945.52
2019-04-03T08:02:47.308Z,98948.10
2019-04-03T08:05:13.494Z,98940.71
2019-04-03T08:07:40.580Z,98948.33
2019-04-03T08:10:08.261Z,98949.28
2019-04-03T08:12:35.887Z,98945.14
2019-04-03T08:15:04.179Z,98947.88
2019-04-03T08:17:31.371Z,98953.15
2019-04-03T08:19:58.733Z,98950.48
2019-04-03T08:22:25.920Z,98945.19
2019-04-03T08:24:53.814Z,98947.55
2019-04-03T08:27:23.455Z,98947.71
2019-04-03T08:29:52.116Z,98952.68
2019-04-03T08:32:19.521Z,98947.80
2019-04-03T08:34:47.546Z,98956.05
2019-04-03T08:37:15.997Z,98954.11
2019-04-03T08:39:44.005Z,98956.44
2019-04-03T08:42:15.045Z,98951.55
2019-04-03T08:44:42.181Z,98962.16
2019-04-03T08:47:13.618Z,98964.24
2019-04-03T08:49:40.868Z,98972.94
2019-04-03T08:52:08.278Z,98975.60
2019-04-03T08:54:35.454Z,98981.36
2019-04-03T08:57:03.362Z,98983.51
2019-04-03T08:59:30.584Z,98991.34
2019-04-03T09:01:57.625Z,98992.32
2019-04-03T09:04:24.778Z,98995.95
2019-04-03T09:06:54.139Z,99003.70
2019-04-03T09:09:20.818Z,99005.47
2019-04-03T09:11:49.711Z,99022.05
2019-04-03T09:14:19.375Z,99021.84
2019-04-03T09:16:46.255Z,99016.34
2019-04-03T09:19:13.594Z,99023.01
2019-04-03T09:21:41.585Z,99025.27
2019-04-03T09:24:09.251Z,99018.10
2019-04-03T09:26:38.031Z,99016.36
2019-04-03T09:29:05.337Z,99011.23
2019-04-03T09:31:32.365Z,99022.80
2019-04-03T09:33:59.521Z,99029.22
2019-04-03T09:36:26.971Z,99034.61
2019-04-03T09:38:54.529Z,99025.13
2019-04-03T09:41:21.599Z,99025.83
2019-04-03T09:43:49.734Z,99028.69
2019-04-03T09:46:16.828Z,99032.44
2019-04-03T09:48:43.882Z,99032.68
2019-04-03T09:51:11.042Z,99036.94
2019-04-03T09:53:38.814Z,99043.52
2019-04-03T09:56:08.005Z,99044.35
2019-04-03T09:58:35.819Z,99037.11
2019-04-03T10:01:06.085Z,99042.06
2019-04-03T10:03:35.863Z,99044.69
2019-04-03T10:06:03.352Z,99041.86
2019-04-03T10:08:30.819Z,99037.84
2019-04-03T10:10:58.102Z,99049.96
2019-04-03T10:13:26.325Z,99048.70
2019-04-03T10:15:53.772Z,99050.01
2019-04-03T10:18:22.151Z,99051.73
2019-04-03T10:20:49.787Z,99057.41
2019-04-03T10:23:17.275Z,99064.05
2019-04-03T10:25:44.315Z,99061.29
2019-04-03T10:28:14.801Z,99061.22
2019-04-03T10:30:41.408Z,99056.42
2019-04-03T10:33:10.005Z,99071.00
2019-04-03T10:35:38.905Z,99067.12
2019-04-03T10:38:06.331Z,99079.03
2019-04-03T10:40:34.223Z,99075.68
2019-04-03T10:43:04.619Z,99068.08
2019-04-03T10:45:31.600Z,99071.32
2019-04-03T10:47:59.048Z,99073.65
2019-04-03T10:50:26.339Z,99060.44
2019-04-03T10:52:54.672Z,99050.56
2019-04-03T10:55:25.862Z,99019.91
2019-04-03T10:57:54.402Z,99022.73
2019-04-03T11:00:22.087Z,99022.64
2019-04-03T11:02:50.418Z,99025.08
2019-04-03T11:05:17.776Z,99025.98
2019-04-03T11:07:45.439Z,99027.98
2019-04-03T11:10:13.522Z,99022.78
2019-04-03T11:12:41.992Z,99028.70
2019-04-03T11:15:12.641Z,99020.92
2019-04-03T11:17:40.546Z,99025.50
2019-04-03T11:20:11.941Z,99024.76
2019-04-03T11:22:43.398Z,99017.84
2019-04-03T11:25:14.775Z,99014.55
2019-04-03T11:27:44.778Z,99012.55
2019-04-03T11:30:18.210Z,99004.45
2019-04-03T11:32:44.018Z,98996.66
2019-04-03T11:35:11.696Z,99001.31
2019-04-03T11:37:40.876Z,98995.05
2019-04-03T11:40:12.083Z,98983.47
2019-04-03T11:42:39.248Z,98969.22
2019-04-03T11:45:07.061Z,98963.29
2019-04-03T11:47:35.002Z,98968.88
2019-04-03T11:50:02.329Z,98973.97
2019-04-03T11:52:29.785Z,98976.89
2019-04-03T11:54:57.269Z,98976.12
2019-04-03T11:57:26.813Z,98973.74
2019-04-03T11:59:55.538Z,98969.57
2019-04-03T12:02:23.891Z,98975.59
2019-04-03T12:04:50.876Z,98979.34
2019-04-03T12:07:18.646Z,98974.41
2019-04-03T12:09:45.974Z,98972.55
2019-04-03T12:12:13.508Z,98975.38
2019-04-03T12:14:40.718Z,98977.55
2019-04-03T12:17:13.581Z,98971.92
2019-04-03T12:19:41.336Z,98962.69
2019-04-03T12:22:08.910Z,98950.26
2019-04-03T12:24:36.292Z,98949.06
2019-04-03T12:27:03.826Z,98952.02
2019-04-03T12:29:37.560Z,98958.06
2019-04-03T12:32:09.045Z,98965.05
2019-04-03T12:34:38.637Z,98959.73
2019-04-03T12:37:09.364Z,98958.53
2019-04-03T12:39:46.232Z,98950.16
2019-04-03T12:42:19.981Z,98945.10
2019-04-03T12:44:52.119Z,98944.07
2019-04-03T12:47:32.062Z,98946.95
2019-04-03T12:50:03.097Z,98947.30
2019-04-03T12:52:32.029Z,98947.50
2019-04-03T12:55:00.869Z,98939.89
2019-04-03T12:57:28.317Z,98922.95
2019-04-03T12:59:55.752Z,98924.33
2019-04-03T13:02:25.018Z,98935.91
2019-04-03T13:04:52.037Z,98944.73
2019-04-03T13:07:29.543Z,98929.19
2019-04-03T13:09:59.100Z,98933.37
2019-04-03T13:12:27.988Z,98946.45
2019-04-03T13:14:55.289Z,98941.64
2019-04-03T13:17:22.565Z,98931.84
2019-04-03T13:19:55.129Z,98923.34
2019-04-03T13:22:22.479Z,98916.22
2019-04-03T13:24:50.124Z,98913.00
2019-04-03T13:27:18.844Z,98904.52
2019-04-03T13:29:47.023Z,98889.53
2019-04-03T13:32:16.449Z,98874.83
2019-04-03T13:34:43.314Z,98869.23
2019-04-03T13:37:11.761Z,98860.59
2019-04-03T13:39:39.349Z,98857.89
2019-04-03T13:42:07.289Z,98841.73
2019-04-03T13:44:36.790Z,98828.20
2019-04-03T13:47:04.381Z,98831.07
2019-04-03T13:52:49.650Z,98847.89
2019-04-03T13:55:18.832Z,98864.53
2019-04-03T13:57:46.953Z,98866.64
2019-04-03T14:00:21.891Z,98875.91
2019-04-03T14:02:45.999Z,98878.05
2019-04-03T14:05:13.312Z,98870.22
2019-04-03T14:07:41.871Z,98859.05
2019-04-03T14:10:11.002Z,98850.78
2019-04-03T14:12:44.198Z,98835.80
2019-04-03T14:15:10.153Z,98826.73
2019-04-03T14:17:37.313Z,98819.16
2019-04-03T14:20:05.080Z,98815.73
2019-04-03T14:22:32.564Z,98808.89
2019-04-03T14:25:01.997Z,98799.98
2019-04-03T14:27:31.256Z,98794.20
2019-04-03T14:30:01.194Z,98796.75
2019-04-03T14:32:28.641Z,98801.66
2019-04-03T14:35:05.312Z,98794.79
2019-04-03T14:37:26.721Z,98794.99
2019-04-03T14:39:54.417Z,98794.30
2019-04-03T14:42:21.876Z,98793.74
2019-04-03T14:44:49.362Z,98807.81
2019-04-03T14:47:16.926Z,98807.59
2019-04-03T14:49:44.925Z,98810.17
2019-04-03T14:52:13.176Z,98809.51
2019-04-03T14:55:20.288Z,98822.05
2019-04-03T14:58:26.894Z,98811.23
2019-04-03T15:00:54.307Z,98803.80
2019-04-03T15:03:21.864Z,98792.47
2019-04-03T15:05:49.148Z,98786.35
2019-04-03T15:08:16.414Z,98800.98
2019-04-03T15:10:43.844Z,98802.45
2019-04-03T15:13:14.459Z,98796.89
2019-04-03T15:15:42.390Z,98805.44
2019-04-03T15:18:10.586Z,98799.14
2019-04-03T15:20:38.467Z,98799.06
2019-04-03T15:23:06.566Z,98798.17
2019-04-03T15:25:34.324Z,98821.91
2019-04-03T15:28:01.849Z,98823.94
2019-04-03T15:30:29.523Z,98834.63
2019-04-03T15:32:56.595Z,98835.44
2019-04-03T15:35:24.315Z,98844.03
2019-04-03T15:37:52.514Z,98850.17
2019-04-03T15:40:20.796Z,98837.93
2019-04-03T15:42:48.093Z,98833.23
2019-04-03T15:45:16.192Z,98832.29
2019-04-03T15:47:46.806Z,98816.06
2019-04-03T15:50:16.284Z,98811.84
2019-04-03T15:52:48.252Z,98806.07
2019-04-03T15:55:18.704Z,98805.37
2019-04-03T15:57:51.736Z,98825.10
2019-04-03T16:00:18.021Z,98819.47
2019-04-03T16:02:47.000Z,98809.91
2019-04-03T16:05:17.855Z,98813.27
2019-04-03T16:07:48.769Z,98804.48
2019-04-03T16:10:21.766Z,98804.67
2019-04-03T16:12:50.976Z,98813.89
2019-04-03T16:15:20.206Z,98822.28
2019-04-03T16:17:54.384Z,98820.86
2019-04-03T16:20:25.288Z,98803.66
2019-04-03T16:22:54.850Z,98805.27
2019-04-03T16:25:25.514Z,98802.48
2019-04-03T16:27:54.552Z,98792.30
2019-04-03T16:30:21.868Z,98799.48
2019-04-03T16:32:50.136Z,98797.60
2019-04-03T16:35:17.569Z,98811.27
2019-04-03T16:37:44.748Z,98824.78
2019-04-03T16:40:16.933Z,98835.87
2019-04-03T16:42:47.591Z,98850.70
2019-04-03T16:45:14.813Z,98854.13
2019-04-03T16:47:45.260Z,98851.77
2019-04-03T16:50:13.717Z,98839.47
2019-04-03T16:52:41.166Z,98836.21
2019-04-03T16:55:08.587Z,98845.73
2019-04-03T16:57:39.401Z,98850.95
2019-04-03T17:00:10.039Z,98842.23
2019-04-03T17:02:39.418Z,98840.71
2019-04-03T17:05:10.462Z,98842.13
2019-04-03T17:07:39.179Z,98838.62
2019-04-03T17:10:09.413Z,98834.11
2019-04-03T17:12:35.922Z,98837.30
2019-04-03T17:15:06.744Z,98847.45
2019-04-03T17:17:33.922Z,98860.92
2019-04-03T17:20:01.411Z,98870.10
2019-04-03T17:22:28.727Z,98880.77
2019-04-03T17:24:56.537Z,98887.66
2019-04-03T17:27:29.658Z,98895.36
2019-04-03T17:29:56.196Z,98887.84
2019-04-03T17:32:24.657Z,98895.45
2019-04-03T17:34:53.692Z,98892.88
2019-04-03T17:37:25.481Z,98889.73
2019-04-03T17:39:53.607Z,98888.59
2019-04-03T17:42:20.804Z,98878.60
2019-04-03T17:44:48.064Z,98879.90
2019-04-03T17:47:19.415Z,98873.77
2019-04-03T17:49:47.499Z,98877.41
2019-04-03T17:52:14.936Z,98876.62
2019-04-03T17:54:42.135Z,98880.39
2019-04-03T17:57:09.244Z,98880.23
2019-04-03T17:59:41.550Z,98875.06
2019-04-03T18:02:12.411Z,98881.06
2019-04-03T18:04:42.505Z,98882.02
2019-04-03T18:07:11.932Z,98878.38
2019-04-03T18:09:41.804Z,98872.97
2019-04-03T18:12:07.892Z,98881.19
2019-04-03T18:14:36.118Z,98883.45
2019-04-03T18:17:03.923Z,98881.59
2019-04-03T18:19:37.840Z,98872.50
2019-04-03T18:22:07.536Z,98885.51
2019-04-03T18:24:39.436Z,98889.41
2019-04-03T18:27:08.000Z,98902.94
2019-04-03T18:29:37.314Z,98903.37
2019-04-03T18:32:07.476Z,98908.11
2019-04-03T18:34:37.448Z,98914.61
2019-04-03T18:37:07.347Z,98918.05
2019-04-03T18:39:36.759Z,98911.39
2019-04-03T18:42:06.296Z,98911.98
2019-04-03T18:44:36.627Z,98920.95
2019-04-03T18:47:04.954Z,98908.86
2019-04-03T18:49:35.108Z,98877.47
2019-04-03T18:52:11.337Z,98867.53
2019-04-03T18:54:45.651Z,98886.72
2019-04-03T18:57:28.276Z,98887.58
2019-04-03T18:59:56.472Z,98893.31
2019-04-03T19:02:26.918Z,98879.95
2019-04-03T19:05:02.248Z,98884.79
2019-04-03T19:07:33.662Z,98897.88
2019-04-03T19:10:08.024Z,98897.05
2019-04-03T19:12:36.216Z,98893.22
2019-04-03T19:15:04.297Z,98896.49
2019-04-03T19:17:35.032Z,98899.23
2019-04-03T19:20:11.284Z,98898.54
2019-04-03T19:23:01.563Z,98895.86
2019-04-03T19:25:38.276Z,98892.44
2019-04-03T19:28:05.912Z,98879.25
2019-04-03T19:30:40.805Z,98882.77
2019-04-03T19:33:09.774Z,98883.05
2019-04-03T19:35:37.241Z,98864.67
2019-04-03T19:38:05.079Z,98869.80
2019-04-03T19:40:51.473Z,98874.61
2019-04-03T19:43:18.568Z,98876.75
2019-04-03T19:45:46.791Z,98878.45
2019-04-03T19:48:14.010Z,98866.55
2019-04-03T19:50:42.443Z,98875.59
2019-04-03T19:53:12.949Z,98876.09
2019-04-03T19:55:39.598Z,98874.19
2019-04-03T19:58:06.907Z,98877.80
2019-04-03T20:00:35.502Z,98875.74
2019-04-03T20:03:04.790Z,98885.70
2019-04-03T20:05:31.912Z,98903.91
2019-04-03T20:07:59.452Z,98900.56
2019-04-03T20:10:27.004Z,98899.33
2019-04-03T20:12:54.369Z,98901.44
2019-04-03T20:15:23.391Z,98910.01
2019-04-03T20:17:50.639Z,98910.95
2019-04-03T20:20:17.957Z,98926.62
2019-04-03T20:22:47.768Z,98928.83
2019-04-03T20:25:15.349Z,98918.44
2019-04-03T20:27:42.852Z,98917.27
2019-04-03T20:30:22.749Z,98904.56
2019-04-03T20:32:50.013Z,98901.33
2019-04-03T20:35:18.651Z,98898.88
2019-04-03T20:37:52.538Z,98883.14
2019-04-03T20:40:25.251Z,98885.04
2019-04-03T20:43:00.765Z,98890.31
2019-04-03T20:45:34.507Z,98892.45
2019-04-03T20:48:03.485Z,98889.45
2019-04-03T20:50:43.287Z,98891.10
2019-04-03T20:53:17.140Z,98882.86
2019-04-03T20:56:34.154Z,98880.70
2019-04-03T20:59:11.034Z,98883.91
2019-04-03T21:01:42.375Z,98869.62
2019-04-03T21:04:09.569Z,98862.12
2019-04-03T21:06:37.432Z,98852.93
2019-04-03T21:09:05.766Z,98846.70
2019-04-03T21:11:37.095Z,98850.67
2019-04-03T21:14:06.036Z,98844.58
2019-04-03T21:16:33.646Z,98852.05
2019-04-03T21:19:05.055Z,98857.91
2019-04-03T21:21:32.662Z,98859.80
2019-04-03T21:24:03.953Z,98860.33
2019-04-03T21:26:32.022Z,98863.02
2019-04-03T21:28:59.302Z,98873.65
2019-04-03T21:31:27.577Z,98870.98
2019-04-03T21:33:55.499Z,98883.93
2019-04-03T21:36:27.201Z,98912.38
2019-04-03T21:38:54.390Z,98914.27
2019-04-03T21:41:26.841Z,98893.20
2019-04-03T21:43:55.470Z,98899.80
2019-04-03T21:46:25.448Z,98898.16
2019-04-03T21:48:52.682Z,98878.30
2019-04-03T21:51:23.296Z,98886.41
2019-04-03T21:53:56.466Z,98890.90
2019-04-03T21:56:23.341Z,98867.28
2019-04-03T21:58:50.380Z,98853.30
2019-04-03T22:01:23.400Z,98860.48
2019-04-03T22:03:51.676Z,98869.39
2019-04-03T22:06:19.069Z,98864.64
2019-04-03T22:08:47.617Z,98861.44
2019-04-03T22:11:14.657Z,98848.88
2019-04-03T22:13:42.140Z,98847.06
2019-04-03T22:16:11.984Z,98856.54
2019-04-03T22:18:39.289Z,98860.09
2019-04-03T22:21:06.789Z,98869.59
2019-04-03T22:23:35.985Z,98876.19
2019-04-03T22:26:02.940Z,98879.59
2019-04-03T22:28:31.184Z,98883.17
2019-04-03T22:30:58.454Z,98876.85
2019-04-03T22:33:27.669Z,98869.41
2019-04-03T22:35:55.466Z,98861.88
2019-04-03T22:38:22.738Z,98867.86
2019-04-03T22:40:52.496Z,98860.92
2019-04-03T22:43:19.932Z,98850.08
2019-04-03T22:45:47.091Z,98838.03
2019-04-03T22:48:15.224Z,98845.47
2019-04-03T22:50:42.463Z,98849.60
2019-04-03T22:53:11.260Z,98857.58
2019-04-03T22:55:38.803Z,98863.81
2019-04-03T22:58:05.859Z,98865.90
2019-04-03T23:00:35.000Z,98869.38
2019-04-03T23:03:02.844Z,98869.88
2019-04-03T23:05:30.801Z,98864.38
2019-04-03T23:07:57.844Z,98863.94
2019-04-03T23:10:25.280Z,98852.73
2019-04-03T23:12:52.307Z,98858.02
2019-04-03T23:15:19.401Z,98859.11
2019-04-03T23:17:46.537Z,98865.84
2019-04-03T23:20:13.560Z,98851.39
2019-04-03T23:22:40.697Z,98850.17
2019-04-03T23:25:09.017Z,98853.53
2019-04-03T23:27:37.949Z,98839.02
2019-04-03T23:30:10.038Z,98844.41
2019-04-03T23:32:37.924Z,98837.50
2019-04-03T23:35:05.199Z,98830.88
2019-04-03T23:37:32.256Z,98816.38
2019-04-03T23:40:01.008Z,98807.98
2019-04-03T23:42:29.840Z,98800.11
2019-04-03T23:44:56.889Z,98801.40
2019-04-03T23:47:24.015Z,98790.63
2019-04-03T23:49:51.684Z,98804.34
2019-04-03T23:52:19.062Z,98804.91
2019-04-03T23:54:47.304Z,98791.91
2019-04-03T23:57:14.349Z,98790.00
2019-04-03T23:59:44.467Z,98778.00
